Aviation Digital Data Service (ADDS)

Output produced by METARs form (0707 UTC 16 January 2018)
found at http://www.aviationweather.gov/adds/metars/
 
ESTA 160650Z 15013KT 9999 BKN005 OVC011 02/01 Q0982
TAF AMD ESTA 160659Z 1607/1615 15012KT 4000 -RASN BKN004 
     BECMG 1607/1609 9999 NSW SCT008 BKN015 
     TEMPO 1609/1615 4000 -SHRASN BR BKN008 SCT020CB